Wildwood, NJ

1:35 PM EDT on August 22, 2014 (GMT -0400)
Cape May County | Change Station
CLOSE
Current Station
Airport
Location: Wildwood,
Elevation: 23 ft
Nearby Weather Stations

Elev 23 ft 39.01 °N, 74.91 °W | Updated 20 minutes ago

Overcast
Overcast
75 °F
Feels Like 75 °F
N
10
Wind Variable Wind from ENE

Today
High -- | Low -- °F
--% Chance of Precip.
Yesterday
High -- | Low -- °F
Precip. -- in
6:19 AM 7:44 PM
Waning Crescent, 7% visible
Pressure 30.01 in
Visibility 10.0 miles
Clouds Mostly Cloudy 1700 ft
Overcast 2400 ft
Dew Point 66 °F
Humidity 73%
Rainfall 0.53 in
Snow Depth Not available.
UV 3 out of 12
Pollen 8.90 out of 12
Air Quality Not available.
Flu Activity Not available.
METAR KWWD 221715Z AUTO 07009KT 10SM BKN017 OVC024 24/19 A3001 RMK AO1

More Conditions Fewer Conditions

Pressure 30.01 in
Visibility 10.0 miles
Clouds Mostly Cloudy 1700 ft
Overcast 2400 ft
Dew Point 66 °F
Humidity 73%
Rainfall 0.53 in
Snow Depth Not available.
UV 3 out of 12
Pollen 8.90 out of 12
Air Quality Not available.
Flu Activity Not available.
METAR KWWD 221715Z AUTO 07009KT 10SM BKN017 OVC024 24/19 A3001 RMK AO1

More Conditions Fewer Conditions

10-Day Weather Forecast

Almanac

Astronomy

Aug. 22, 2014 Rise Set
Actual Time 6:19 AM EDT 7:44 PM EDT
Civil Twilight 5:51 AM EDT 8:12 PM EDT
Nautical Twilight 5:17 AM EDT 8:45 PM EDT
Astronomical Twilight 4:41 AM EDT 9:21 PM EDT
Moon 3:40 AM EDT 5:51 PM EDT
Length of Visible Light 14h 21m
Length of Day
13h 25m
Tomorrow will be 2m 20s shorter.
Waning Crescent, 7% of the Moon is Illuminated
Today
Waning Crescent
Aug 25
New
Sep 2
First Quarter
Sep 8
Full
Sep 15
Last Quarter

Today's Extremes

State Highs State Lows

Community

WunderPhotos

Upload Photos

1,746,205 photos uploaded!

WunderBlogs® & News

Nearby

Snow Depth

Station Depth Elevation
No new snow has been reported.

Earthquake Activity

City Distance Mag. Time & Date
No recent earthquake activity has been reported nearby.
Minimum magnitude displayed is 2.5.

Coastal Water Temperatures

Place Temperature
Cape May, NJ 80.1 °F
Atlantic City, NJ 77.0 °F
Lewes, DE 75.9 °F

Nearby Weather Stations